Nicholls, Georgia
Current Conditions -  °F | °C
As of 9:53 AM on Saturday 22 Nov 2014 (Local Time) from KAMG Reporting Station
Few Clouds Few Clouds  
Wind Chill: 56°   Ceiling: Unl
Heat Index: 56°   Visibility: 10mi
Dew Point: 44°   Wind: 8mph
Humidity: 64%   Direction: 80°E
Pressure: 30.41"   Gusts: 17mph
Location:  31.52°N, 82.63°W
Report Text: KAMG 221453Z AUTO 08007G15KT 050V120 10SM FEW060 13/07 A3041 RMK AO2 SLP298 T01330067 50006
Loading
Personal Weather Stations






























Interactive Weather Map New forecast layout! Learn more

10-Day Weather Forecast

Advertisements
Track Severe Weather on mobile